Terminal Aerodrome Forecast
Issued by NWS Shreveport, LA

Home | Current Version | Previous Version | Text Only | Print | Product List | Glossary On
Versions: 1 2 3 4 5 6 7 8 9 10 11 12 13 14 15 16 17 18
000
FTUS44 KSHV 022300 RRA
TAFGGG
TAF
KGGG 022347Z 0300/0324 15008KT P6SM OVC250
     FM030600 15006KT P6SM BKN250
     FM031000 16004KT 6SM BR SCT010 BKN012
     FM031400 17006KT P6SM BKN012
     FM031600 17008KT P6SM SCT035 SCT250=

USA.gov is the U.S. government's official web portal to all federal, state and local government web resources and services.